Overview Statistics Trail Chart Weather Telemetry Raw packets
 

This is the latest recevied weather packets stored in our database for station/object KD4EG. If no packets are shown the sender has not sent any weather packets the latest 10 day(s).

<< 63 64 65 66 67 68 69 >>
Time Temp. Humidity Pressure Rain* Wind** Luminosity Snow
1788206624 34.44° C 42% 1021.5 hPa 0 mm - 488 W/m² -
1788206319 33.89° C 44% 1021.4 hPa 0 mm - 477 W/m² -
1788206015 34.44° C 42% 1021.6 hPa 0 mm - 508 W/m² -
1788205710 33.89° C 42% 1021.7 hPa 0 mm - 537 W/m² -
1788205405 33.89° C 42% 1021.5 hPa 0 mm - 577 W/m² -
1788205104 34.44° C 43% 1021.4 hPa 0 mm - 570 W/m² -
1788204799 33.89° C 44% 1021.4 hPa 0 mm - 567 W/m² -
1788204495 34.44° C 43% 1021.7 hPa 0 mm - 573 W/m² -
1788204189 34.44° C 43% 1021.5 hPa 0 mm - 571 W/m² -
1788203885 33.33° C 43% 1021.5 hPa 0 mm - 585 W/m² -
1788203581 33.33° C 43% 1021.5 hPa 0 mm - 590 W/m² -
1788203277 33.89° C 45% 1021.6 hPa 0 mm - 609 W/m² -
1788202970 33.33° C 44% 1021.8 hPa 0 mm - 615 W/m² -
1788202665 33.89° C 46% 1021.7 hPa 0 mm - 650 W/m² -
1788202361 33.89° C 46% 1022 hPa 0 mm - 341 W/m² -
1788202059 33.89° C 46% 1021.6 hPa 0 mm - 642 W/m² -
1788201756 33.89° C 47% 1021.7 hPa 0 mm - 646 W/m² -
1788201456 33.89° C 46% 1021.9 hPa 0 mm - 674 W/m² -
1788201150 33.33° C 47% 1021.9 hPa 0 mm - 670 W/m² -
1788200849 33.33° C 46% 1021.9 hPa 0 mm - 681 W/m² -
1788200545 33.33° C 46% 1022 hPa 0 mm - 683 W/m² -
1788200245 33.89° C 43% 1022.2 hPa 0 mm - 676 W/m² -
1788199940 33.89° C 45% 1022.3 hPa 0 mm - 640 W/m² -
1788199635 33.89° C 42% 1022.2 hPa 0 mm - 611 W/m² -
1788199330 32.78° C 45% 1022.3 hPa 0 mm - 610 W/m² -

* Rain latest hour (hover to see other rain measurements)
** Current wind speed in m/s (hover to see current wind gust speed)